sensor_id;sensor_type;location;lat;lon;timestamp;P1;durP1;ratioP1;P2;durP2;ratioP2
78120;SDS011;67585;44.802;10.332;2023-05-29T00:02:19;17.65;;;8.07;;
78120;SDS011;67585;44.802;10.332;2023-05-29T00:04:45;15.75;;;7.57;;
78120;SDS011;67585;44.802;10.332;2023-05-29T00:07:10;20.00;;;7.00;;
78120;SDS011;67585;44.802;10.332;2023-05-29T00:09:35;24.42;;;7.97;;
78120;SDS011;67585;44.802;10.332;2023-05-29T00:12:01;20.60;;;8.75;;
78120;SDS011;67585;44.802;10.332;2023-05-29T00:14:27;20.65;;;8.65;;
78120;SDS011;67585;44.802;10.332;2023-05-29T00:16:52;21.08;;;8.18;;
78120;SDS011;67585;44.802;10.332;2023-05-29T00:19:18;18.05;;;7.22;;
78120;SDS011;67585;44.802;10.332;2023-05-29T00:21:44;21.17;;;7.78;;
78120;SDS011;67585;44.802;10.332;2023-05-29T00:24:13;20.65;;;7.88;;
78120;SDS011;67585;44.802;10.332;2023-05-29T00:26:39;16.42;;;7.43;;
78120;SDS011;67585;44.802;10.332;2023-05-29T00:29:04;18.73;;;5.97;;
78120;SDS011;67585;44.802;10.332;2023-05-29T00:31:30;17.77;;;7.03;;
78120;SDS011;67585;44.802;10.332;2023-05-29T00:33:55;16.15;;;6.65;;
78120;SDS011;67585;44.802;10.332;2023-05-29T00:36:21;19.33;;;7.70;;
78120;SDS011;67585;44.802;10.332;2023-05-29T00:38:46;14.23;;;6.40;;
78120;SDS011;67585;44.802;10.332;2023-05-29T00:41:15;17.27;;;6.45;;
78120;SDS011;67585;44.802;10.332;2023-05-29T00:43:41;19.45;;;7.38;;
78120;SDS011;67585;44.802;10.332;2023-05-29T00:46:07;15.65;;;6.50;;
78120;SDS011;67585;44.802;10.332;2023-05-29T00:48:33;22.33;;;7.00;;
78120;SDS011;67585;44.802;10.332;2023-05-29T00:50:59;19.30;;;6.97;;
78120;SDS011;67585;44.802;10.332;2023-05-29T00:53:25;19.60;;;7.03;;
78120;SDS011;67585;44.802;10.332;2023-05-29T00:55:51;14.88;;;6.18;;
78120;SDS011;67585;44.802;10.332;2023-05-29T01:00:43;18.80;;;7.63;;
78120;SDS011;67585;44.802;10.332;2023-05-29T01:03:08;18.52;;;6.85;;
78120;SDS011;67585;44.802;10.332;2023-05-29T01:05:35;17.60;;;6.95;;
78120;SDS011;67585;44.802;10.332;2023-05-29T01:08:03;17.42;;;7.65;;
78120;SDS011;67585;44.802;10.332;2023-05-29T01:10:28;16.02;;;6.40;;
78120;SDS011;67585;44.802;10.332;2023-05-29T01:12:59;16.45;;;7.10;;
78120;SDS011;67585;44.802;10.332;2023-05-29T01:18:57;20.98;;;7.03;;
78120;SDS011;67585;44.802;10.332;2023-05-29T01:21:42;19.08;;;8.05;;
78120;SDS011;67585;44.802;10.332;2023-05-29T01:24:37;14.43;;;5.95;;
78120;SDS011;67585;44.802;10.332;2023-05-29T01:27:21;17.05;;;7.18;;
78120;SDS011;67585;44.802;10.332;2023-05-29T01:29:50;18.75;;;7.25;;
78120;SDS011;67585;44.802;10.332;2023-05-29T01:32:17;21.50;;;7.15;;
78120;SDS011;67585;44.802;10.332;2023-05-29T01:34:44;17.55;;;7.10;;
78120;SDS011;67585;44.802;10.332;2023-05-29T01:37:10;18.17;;;6.88;;
78120;SDS011;67585;44.802;10.332;2023-05-29T01:39:35;15.82;;;7.35;;
78120;SDS011;67585;44.802;10.332;2023-05-29T01:42:01;20.77;;;7.22;;
78120;SDS011;67585;44.802;10.332;2023-05-29T01:44:28;22.05;;;7.43;;
78120;SDS011;67585;44.802;10.332;2023-05-29T01:46:54;17.48;;;6.32;;
78120;SDS011;67585;44.802;10.332;2023-05-29T01:49:19;20.10;;;6.88;;
78120;SDS011;67585;44.802;10.332;2023-05-29T01:51:46;18.15;;;6.13;;
78120;SDS011;67585;44.802;10.332;2023-05-29T01:54:11;20.40;;;7.43;;
78120;SDS011;67585;44.802;10.332;2023-05-29T01:56:36;17.90;;;7.35;;
78120;SDS011;67585;44.802;10.332;2023-05-29T01:59:03;19.35;;;6.80;;
78120;SDS011;67585;44.802;10.332;2023-05-29T02:01:29;16.65;;;7.55;;
78120;SDS011;67585;44.802;10.332;2023-05-29T02:03:55;16.13;;;6.20;;
78120;SDS011;67585;44.802;10.332;2023-05-29T02:06:21;17.90;;;6.85;;
78120;SDS011;67585;44.802;10.332;2023-05-29T02:08:46;18.25;;;7.45;;
78120;SDS011;67585;44.802;10.332;2023-05-29T02:11:12;17.30;;;7.68;;
78120;SDS011;67585;44.802;10.332;2023-05-29T02:13:37;15.93;;;6.80;;
78120;SDS011;67585;44.802;10.332;2023-05-29T02:16:03;17.77;;;6.57;;
78120;SDS011;67585;44.802;10.332;2023-05-29T02:18:28;20.75;;;7.82;;
78120;SDS011;67585;44.802;10.332;2023-05-29T02:20:54;16.58;;;6.88;;
78120;SDS011;67585;44.802;10.332;2023-05-29T02:23:19;16.10;;;6.43;;
78120;SDS011;67585;44.802;10.332;2023-05-29T02:25:45;18.08;;;6.82;;
78120;SDS011;67585;44.802;10.332;2023-05-29T02:28:11;16.75;;;5.95;;
78120;SDS011;67585;44.802;10.332;2023-05-29T02:30:36;19.13;;;7.10;;
78120;SDS011;67585;44.802;10.332;2023-05-29T02:33:02;17.30;;;6.82;;
78120;SDS011;67585;44.802;10.332;2023-05-29T02:35:27;21.00;;;7.10;;
78120;SDS011;67585;44.802;10.332;2023-05-29T02:37:53;17.17;;;6.80;;
78120;SDS011;67585;44.802;10.332;2023-05-29T02:40:18;19.73;;;7.78;;
78120;SDS011;67585;44.802;10.332;2023-05-29T02:42:45;21.23;;;7.50;;
78120;SDS011;67585;44.802;10.332;2023-05-29T02:45:11;17.40;;;6.90;;
78120;SDS011;67585;44.802;10.332;2023-05-29T02:47:36;16.33;;;7.28;;
78120;SDS011;67585;44.802;10.332;2023-05-29T02:50:02;17.45;;;7.82;;
78120;SDS011;67585;44.802;10.332;2023-05-29T02:52:28;18.67;;;7.53;;
78120;SDS011;67585;44.802;10.332;2023-05-29T02:54:55;19.35;;;7.43;;
78120;SDS011;67585;44.802;10.332;2023-05-29T02:57:21;22.27;;;7.80;;
78120;SDS011;67585;44.802;10.332;2023-05-29T02:59:47;18.55;;;7.28;;
78120;SDS011;67585;44.802;10.332;2023-05-29T03:02:12;18.35;;;6.80;;
78120;SDS011;67585;44.802;10.332;2023-05-29T03:04:38;18.83;;;7.70;;
78120;SDS011;67585;44.802;10.332;2023-05-29T03:07:03;21.80;;;6.93;;
78120;SDS011;67585;44.802;10.332;2023-05-29T03:09:29;24.85;;;8.60;;
78120;SDS011;67585;44.802;10.332;2023-05-29T03:11:54;17.58;;;7.53;;
78120;SDS011;67585;44.802;10.332;2023-05-29T03:14:19;15.93;;;7.40;;
78120;SDS011;67585;44.802;10.332;2023-05-29T03:16:46;17.50;;;7.30;;
78120;SDS011;67585;44.802;10.332;2023-05-29T03:19:12;18.00;;;6.78;;
78120;SDS011;67585;44.802;10.332;2023-05-29T03:21:37;22.75;;;7.80;;
78120;SDS011;67585;44.802;10.332;2023-05-29T03:24:03;20.48;;;8.20;;
78120;SDS011;67585;44.802;10.332;2023-05-29T03:26:28;15.82;;;6.72;;
78120;SDS011;67585;44.802;10.332;2023-05-29T03:28:54;16.80;;;8.60;;
78120;SDS011;67585;44.802;10.332;2023-05-29T03:31:20;21.05;;;7.68;;
78120;SDS011;67585;44.802;10.332;2023-05-29T03:33:46;24.63;;;8.25;;
78120;SDS011;67585;44.802;10.332;2023-05-29T03:36:12;22.75;;;8.05;;
78120;SDS011;67585;44.802;10.332;2023-05-29T03:38:37;20.42;;;8.55;;
78120;SDS011;67585;44.802;10.332;2023-05-29T03:41:03;20.38;;;8.13;;
78120;SDS011;67585;44.802;10.332;2023-05-29T03:43:28;20.67;;;8.57;;
78120;SDS011;67585;44.802;10.332;2023-05-29T03:45:53;21.38;;;8.15;;
78120;SDS011;67585;44.802;10.332;2023-05-29T03:48:19;23.17;;;7.68;;
78120;SDS011;67585;44.802;10.332;2023-05-29T03:50:45;20.90;;;8.20;;
78120;SDS011;67585;44.802;10.332;2023-05-29T03:53:11;22.60;;;10.93;;
78120;SDS011;67585;44.802;10.332;2023-05-29T03:55:37;19.73;;;7.97;;
78120;SDS011;67585;44.802;10.332;2023-05-29T03:58:02;23.67;;;8.68;;
78120;SDS011;67585;44.802;10.332;2023-05-29T04:00:28;20.80;;;8.65;;
78120;SDS011;67585;44.802;10.332;2023-05-29T04:02:54;21.92;;;10.43;;
78120;SDS011;67585;44.802;10.332;2023-05-29T04:05:20;17.52;;;8.50;;
78120;SDS011;67585;44.802;10.332;2023-05-29T04:07:45;25.23;;;8.52;;
78120;SDS011;67585;44.802;10.332;2023-05-29T04:10:11;20.45;;;7.57;;
78120;SDS011;67585;44.802;10.332;2023-05-29T04:12:36;20.73;;;7.32;;
78120;SDS011;67585;44.802;10.332;2023-05-29T04:15:01;20.35;;;8.45;;
78120;SDS011;67585;44.802;10.332;2023-05-29T04:17:27;18.35;;;6.93;;
78120;SDS011;67585;44.802;10.332;2023-05-29T04:19:53;20.80;;;6.93;;
78120;SDS011;67585;44.802;10.332;2023-05-29T04:22:18;20.45;;;7.90;;
78120;SDS011;67585;44.802;10.332;2023-05-29T04:24:45;19.77;;;7.40;;
78120;SDS011;67585;44.802;10.332;2023-05-29T04:27:11;19.08;;;7.97;;
78120;SDS011;67585;44.802;10.332;2023-05-29T04:29:41;29.65;;;8.95;;
78120;SDS011;67585;44.802;10.332;2023-05-29T04:32:10;19.20;;;7.45;;
78120;SDS011;67585;44.802;10.332;2023-05-29T04:34:36;21.67;;;9.20;;
78120;SDS011;67585;44.802;10.332;2023-05-29T04:37:04;21.52;;;9.00;;
78120;SDS011;67585;44.802;10.332;2023-05-29T04:39:30;24.85;;;8.05;;
78120;SDS011;67585;44.802;10.332;2023-05-29T04:41:55;21.67;;;9.65;;
78120;SDS011;67585;44.802;10.332;2023-05-29T04:44:23;19.00;;;7.82;;
78120;SDS011;67585;44.802;10.332;2023-05-29T04:46:50;20.02;;;7.95;;
78120;SDS011;67585;44.802;10.332;2023-05-29T04:49:17;19.10;;;8.25;;
78120;SDS011;67585;44.802;10.332;2023-05-29T04:51:42;20.63;;;8.88;;
78120;SDS011;67585;44.802;10.332;2023-05-29T04:54:08;18.55;;;7.93;;
78120;SDS011;67585;44.802;10.332;2023-05-29T04:56:34;26.05;;;11.10;;
78120;SDS011;67585;44.802;10.332;2023-05-29T04:59:00;19.20;;;7.75;;
78120;SDS011;67585;44.802;10.332;2023-05-29T05:01:25;19.70;;;9.85;;
78120;SDS011;67585;44.802;10.332;2023-05-29T05:03:51;16.55;;;7.18;;
78120;SDS011;67585;44.802;10.332;2023-05-29T05:06:21;19.40;;;7.63;;
78120;SDS011;67585;44.802;10.332;2023-05-29T05:08:47;24.45;;;7.65;;
78120;SDS011;67585;44.802;10.332;2023-05-29T05:11:12;20.83;;;8.27;;
78120;SDS011;67585;44.802;10.332;2023-05-29T05:13:38;22.85;;;7.57;;
78120;SDS011;67585;44.802;10.332;2023-05-29T05:16:04;17.42;;;7.32;;
78120;SDS011;67585;44.802;10.332;2023-05-29T05:18:29;22.98;;;8.32;;
78120;SDS011;67585;44.802;10.332;2023-05-29T05:20:55;17.50;;;8.23;;
78120;SDS011;67585;44.802;10.332;2023-05-29T05:23:20;20.20;;;8.63;;
78120;SDS011;67585;44.802;10.332;2023-05-29T05:25:46;19.98;;;8.05;;
78120;SDS011;67585;44.802;10.332;2023-05-29T05:28:11;21.23;;;8.98;;
78120;SDS011;67585;44.802;10.332;2023-05-29T05:30:38;18.77;;;8.20;;
78120;SDS011;67585;44.802;10.332;2023-05-29T05:33:03;19.70;;;7.60;;
78120;SDS011;67585;44.802;10.332;2023-05-29T05:35:29;27.77;;;8.32;;
78120;SDS011;67585;44.802;10.332;2023-05-29T05:37:54;28.30;;;7.85;;
78120;SDS011;67585;44.802;10.332;2023-05-29T05:40:22;21.20;;;9.00;;
78120;SDS011;67585;44.802;10.332;2023-05-29T05:42:48;24.80;;;9.07;;
78120;SDS011;67585;44.802;10.332;2023-05-29T05:45:14;21.08;;;8.60;;
78120;SDS011;67585;44.802;10.332;2023-05-29T05:47:56;22.65;;;8.73;;
78120;SDS011;67585;44.802;10.332;2023-05-29T05:50:21;25.08;;;9.05;;
78120;SDS011;67585;44.802;10.332;2023-05-29T05:52:47;22.08;;;9.23;;
78120;SDS011;67585;44.802;10.332;2023-05-29T05:55:25;19.23;;;8.85;;
78120;SDS011;67585;44.802;10.332;2023-05-29T05:58:12;29.70;;;9.93;;
78120;SDS011;67585;44.802;10.332;2023-05-29T06:00:37;25.40;;;10.23;;
78120;SDS011;67585;44.802;10.332;2023-05-29T06:03:04;31.95;;;9.85;;
78120;SDS011;67585;44.802;10.332;2023-05-29T06:05:29;21.48;;;9.52;;
78120;SDS011;67585;44.802;10.332;2023-05-29T06:07:55;25.73;;;10.60;;
78120;SDS011;67585;44.802;10.332;2023-05-29T06:10:20;22.42;;;9.23;;
78120;SDS011;67585;44.802;10.332;2023-05-29T06:12:46;20.33;;;9.88;;
78120;SDS011;67585;44.802;10.332;2023-05-29T06:15:11;23.55;;;9.68;;
78120;SDS011;67585;44.802;10.332;2023-05-29T06:17:37;27.80;;;10.38;;
78120;SDS011;67585;44.802;10.332;2023-05-29T06:20:03;26.42;;;14.77;;
78120;SDS011;67585;44.802;10.332;2023-05-29T06:22:35;26.02;;;11.18;;
78120;SDS011;67585;44.802;10.332;2023-05-29T06:25:01;29.95;;;10.68;;
78120;SDS011;67585;44.802;10.332;2023-05-29T06:27:26;29.55;;;11.82;;
78120;SDS011;67585;44.802;10.332;2023-05-29T06:29:52;31.15;;;11.05;;
78120;SDS011;67585;44.802;10.332;2023-05-29T06:32:17;34.38;;;11.50;;
78120;SDS011;67585;44.802;10.332;2023-05-29T06:34:43;26.33;;;11.60;;
78120;SDS011;67585;44.802;10.332;2023-05-29T06:37:08;28.90;;;11.18;;
78120;SDS011;67585;44.802;10.332;2023-05-29T06:39:34;27.63;;;11.18;;
78120;SDS011;67585;44.802;10.332;2023-05-29T06:41:59;35.42;;;13.88;;
78120;SDS011;67585;44.802;10.332;2023-05-29T06:44:26;34.22;;;13.02;;
78120;SDS011;67585;44.802;10.332;2023-05-29T06:46:52;29.67;;;12.20;;
78120;SDS011;67585;44.802;10.332;2023-05-29T06:49:17;36.30;;;12.35;;
78120;SDS011;67585;44.802;10.332;2023-05-29T06:51:43;32.08;;;12.70;;
78120;SDS011;67585;44.802;10.332;2023-05-29T06:56:35;32.40;;;13.80;;
78120;SDS011;67585;44.802;10.332;2023-05-29T06:59:00;30.33;;;13.45;;
78120;SDS011;67585;44.802;10.332;2023-05-29T07:01:25;32.40;;;14.02;;
78120;SDS011;67585;44.802;10.332;2023-05-29T07:03:51;34.75;;;13.27;;
78120;SDS011;67585;44.802;10.332;2023-05-29T07:06:17;42.35;;;16.10;;
78120;SDS011;67585;44.802;10.332;2023-05-29T07:08:43;32.08;;;12.68;;
78120;SDS011;67585;44.802;10.332;2023-05-29T07:11:08;32.17;;;15.65;;
78120;SDS011;67585;44.802;10.332;2023-05-29T07:13:34;31.73;;;14.93;;
78120;SDS011;67585;44.802;10.332;2023-05-29T07:16:00;36.83;;;17.33;;
78120;SDS011;67585;44.802;10.332;2023-05-29T07:18:26;38.30;;;15.80;;
78120;SDS011;67585;44.802;10.332;2023-05-29T07:20:51;33.72;;;16.20;;
78120;SDS011;67585;44.802;10.332;2023-05-29T07:23:16;36.30;;;15.32;;
78120;SDS011;67585;44.802;10.332;2023-05-29T07:25:42;34.50;;;15.23;;
78120;SDS011;67585;44.802;10.332;2023-05-29T07:28:07;32.45;;;14.25;;
78120;SDS011;67585;44.802;10.332;2023-05-29T07:30:32;36.38;;;16.65;;
78120;SDS011;67585;44.802;10.332;2023-05-29T07:32:58;34.90;;;16.83;;
78120;SDS011;67585;44.802;10.332;2023-05-29T07:35:23;32.80;;;14.30;;
78120;SDS011;67585;44.802;10.332;2023-05-29T07:37:49;32.47;;;14.57;;
78120;SDS011;67585;44.802;10.332;2023-05-29T07:40:16;37.33;;;15.25;;
78120;SDS011;67585;44.802;10.332;2023-05-29T07:42:41;32.90;;;14.25;;
78120;SDS011;67585;44.802;10.332;2023-05-29T07:45:07;33.83;;;14.55;;
78120;SDS011;67585;44.802;10.332;2023-05-29T07:47:32;34.05;;;15.23;;
78120;SDS011;67585;44.802;10.332;2023-05-29T07:49:58;35.83;;;14.20;;
78120;SDS011;67585;44.802;10.332;2023-05-29T07:52:23;32.80;;;15.48;;
78120;SDS011;67585;44.802;10.332;2023-05-29T07:57:15;33.53;;;13.95;;
78120;SDS011;67585;44.802;10.332;2023-05-29T07:59:41;34.08;;;14.32;;
78120;SDS011;67585;44.802;10.332;2023-05-29T08:02:07;33.45;;;13.70;;
78120;SDS011;67585;44.802;10.332;2023-05-29T08:04:32;33.35;;;13.43;;
78120;SDS011;67585;44.802;10.332;2023-05-29T08:07:01;32.00;;;13.40;;
78120;SDS011;67585;44.802;10.332;2023-05-29T08:09:28;31.20;;;14.68;;
78120;SDS011;67585;44.802;10.332;2023-05-29T08:11:54;29.15;;;12.25;;
78120;SDS011;67585;44.802;10.332;2023-05-29T08:14:19;25.67;;;11.20;;
78120;SDS011;67585;44.802;10.332;2023-05-29T08:16:44;32.80;;;12.65;;
78120;SDS011;67585;44.802;10.332;2023-05-29T08:19:10;27.23;;;11.82;;
78120;SDS011;67585;44.802;10.332;2023-05-29T08:21:35;31.88;;;13.32;;
78120;SDS011;67585;44.802;10.332;2023-05-29T08:24:02;31.10;;;13.40;;
78120;SDS011;67585;44.802;10.332;2023-05-29T08:26:31;28.90;;;12.25;;
78120;SDS011;67585;44.802;10.332;2023-05-29T08:28:57;30.77;;;14.07;;
78120;SDS011;67585;44.802;10.332;2023-05-29T08:31:22;31.75;;;13.38;;
78120;SDS011;67585;44.802;10.332;2023-05-29T08:33:50;29.35;;;12.63;;
78120;SDS011;67585;44.802;10.332;2023-05-29T08:36:16;25.88;;;11.23;;
78120;SDS011;67585;44.802;10.332;2023-05-29T08:38:42;26.77;;;11.05;;
78120;SDS011;67585;44.802;10.332;2023-05-29T08:41:08;30.88;;;10.32;;
78120;SDS011;67585;44.802;10.332;2023-05-29T08:43:41;26.65;;;12.05;;
78120;SDS011;67585;44.802;10.332;2023-05-29T08:46:08;26.10;;;11.00;;
78120;SDS011;67585;44.802;10.332;2023-05-29T08:51:02;24.55;;;10.23;;
78120;SDS011;67585;44.802;10.332;2023-05-29T08:53:27;23.02;;;9.20;;
78120;SDS011;67585;44.802;10.332;2023-05-29T08:55:53;21.33;;;9.70;;
78120;SDS011;67585;44.802;10.332;2023-05-29T08:58:20;26.73;;;9.77;;
78120;SDS011;67585;44.802;10.332;2023-05-29T09:00:47;22.55;;;11.05;;
78120;SDS011;67585;44.802;10.332;2023-05-29T09:03:14;22.55;;;8.90;;
78120;SDS011;67585;44.802;10.332;2023-05-29T09:05:39;24.50;;;9.25;;
78120;SDS011;67585;44.802;10.332;2023-05-29T09:08:06;30.15;;;10.57;;
78120;SDS011;67585;44.802;10.332;2023-05-29T09:10:33;27.63;;;10.48;;
78120;SDS011;67585;44.802;10.332;2023-05-29T09:12:59;29.63;;;10.98;;
78120;SDS011;67585;44.802;10.332;2023-05-29T09:15:24;23.20;;;10.45;;
78120;SDS011;67585;44.802;10.332;2023-05-29T09:20:25;20.92;;;8.98;;
78120;SDS011;67585;44.802;10.332;2023-05-29T09:25:26;20.65;;;9.05;;
78120;SDS011;67585;44.802;10.332;2023-05-29T09:27:56;24.02;;;10.10;;
78120;SDS011;67585;44.802;10.332;2023-05-29T09:30:39;23.70;;;10.02;;
78120;SDS011;67585;44.802;10.332;2023-05-29T09:33:06;21.48;;;8.35;;
78120;SDS011;67585;44.802;10.332;2023-05-29T09:35:40;24.42;;;10.13;;
78120;SDS011;67585;44.802;10.332;2023-05-29T09:38:07;20.42;;;8.30;;
78120;SDS011;67585;44.802;10.332;2023-05-29T09:40:38;24.42;;;8.77;;
78120;SDS011;67585;44.802;10.332;2023-05-29T09:45:37;21.45;;;9.32;;
78120;SDS011;67585;44.802;10.332;2023-05-29T09:48:08;22.95;;;9.27;;
78120;SDS011;67585;44.802;10.332;2023-05-29T09:50:37;23.55;;;9.15;;
78120;SDS011;67585;44.802;10.332;2023-05-29T09:53:02;23.67;;;10.70;;
78120;SDS011;67585;44.802;10.332;2023-05-29T09:55:28;25.83;;;9.40;;
78120;SDS011;67585;44.802;10.332;2023-05-29T09:57:57;20.52;;;9.25;;
78120;SDS011;67585;44.802;10.332;2023-05-29T10:00:23;22.35;;;10.25;;
78120;SDS011;67585;44.802;10.332;2023-05-29T10:02:49;21.42;;;8.05;;
78120;SDS011;67585;44.802;10.332;2023-05-29T10:05:14;21.42;;;8.68;;
78120;SDS011;67585;44.802;10.332;2023-05-29T10:07:42;24.40;;;8.73;;
78120;SDS011;67585;44.802;10.332;2023-05-29T10:10:11;20.10;;;7.55;;
78120;SDS011;67585;44.802;10.332;2023-05-29T10:12:42;25.08;;;9.27;;
78120;SDS011;67585;44.802;10.332;2023-05-29T10:15:13;18.00;;;8.38;;
78120;SDS011;67585;44.802;10.332;2023-05-29T10:17:53;22.30;;;9.23;;
78120;SDS011;67585;44.802;10.332;2023-05-29T10:20:24;25.02;;;8.13;;
78120;SDS011;67585;44.802;10.332;2023-05-29T10:22:52;24.10;;;8.18;;
78120;SDS011;67585;44.802;10.332;2023-05-29T10:25:20;23.00;;;8.98;;
78120;SDS011;67585;44.802;10.332;2023-05-29T10:27:48;23.13;;;7.45;;
78120;SDS011;67585;44.802;10.332;2023-05-29T10:35:45;22.25;;;8.82;;
78120;SDS011;67585;44.802;10.332;2023-05-29T10:38:13;21.77;;;8.27;;
78120;SDS011;67585;44.802;10.332;2023-05-29T10:40:43;19.13;;;7.82;;
78120;SDS011;67585;44.802;10.332;2023-05-29T10:43:09;19.52;;;8.65;;
78120;SDS011;67585;44.802;10.332;2023-05-29T10:45:59;17.30;;;6.93;;
78120;SDS011;67585;44.802;10.332;2023-05-29T10:50:56;16.48;;;6.35;;
78120;SDS011;67585;44.802;10.332;2023-05-29T10:53:26;15.65;;;6.68;;
78120;SDS011;67585;44.802;10.332;2023-05-29T10:55:56;16.92;;;7.38;;
78120;SDS011;67585;44.802;10.332;2023-05-29T10:58:22;24.38;;;10.15;;
78120;SDS011;67585;44.802;10.332;2023-05-29T11:00:49;23.65;;;7.65;;
78120;SDS011;67585;44.802;10.332;2023-05-29T11:03:15;18.67;;;6.93;;
78120;SDS011;67585;44.802;10.332;2023-05-29T11:05:58;22.67;;;7.03;;
78120;SDS011;67585;44.802;10.332;2023-05-29T11:11:12;15.98;;;6.30;;
78120;SDS011;67585;44.802;10.332;2023-05-29T11:13:39;21.35;;;6.97;;
78120;SDS011;67585;44.802;10.332;2023-05-29T11:16:13;23.65;;;7.03;;
78120;SDS011;67585;44.802;10.332;2023-05-29T11:18:45;19.67;;;7.50;;
78120;SDS011;67585;44.802;10.332;2023-05-29T11:23:57;19.20;;;6.55;;
78120;SDS011;67585;44.802;10.332;2023-05-29T11:26:31;15.68;;;6.00;;
78120;SDS011;67585;44.802;10.332;2023-05-29T11:29:01;18.85;;;6.45;;
78120;SDS011;67585;44.802;10.332;2023-05-29T11:31:31;22.48;;;8.63;;
78120;SDS011;67585;44.802;10.332;2023-05-29T11:34:01;17.15;;;7.22;;
78120;SDS011;67585;44.802;10.332;2023-05-29T11:36:32;23.13;;;7.65;;
78120;SDS011;67585;44.802;10.332;2023-05-29T11:38:58;18.58;;;6.50;;
78120;SDS011;67585;44.802;10.332;2023-05-29T11:41:25;19.67;;;8.27;;
78120;SDS011;67585;44.802;10.332;2023-05-29T11:46:30;25.58;;;7.80;;
78120;SDS011;67585;44.802;10.332;2023-05-29T11:48:57;19.27;;;6.30;;
78120;SDS011;67585;44.802;10.332;2023-05-29T11:51:23;17.83;;;7.40;;
78120;SDS011;67585;44.802;10.332;2023-05-29T11:53:49;15.77;;;6.70;;
78120;SDS011;67585;44.802;10.332;2023-05-29T11:56:18;22.58;;;10.15;;
78120;SDS011;67585;44.802;10.332;2023-05-29T11:58:43;24.77;;;8.02;;
78120;SDS011;67585;44.802;10.332;2023-05-29T12:01:09;14.98;;;7.65;;
78120;SDS011;67585;44.802;10.332;2023-05-29T12:03:41;17.17;;;6.45;;
78120;SDS011;67585;44.802;10.332;2023-05-29T12:06:10;16.20;;;6.03;;
78120;SDS011;67585;44.802;10.332;2023-05-29T12:08:39;23.67;;;8.18;;
78120;SDS011;67585;44.802;10.332;2023-05-29T12:11:05;19.33;;;6.75;;
78120;SDS011;67585;44.802;10.332;2023-05-29T12:13:30;21.05;;;6.95;;
78120;SDS011;67585;44.802;10.332;2023-05-29T12:15:57;18.75;;;6.20;;
78120;SDS011;67585;44.802;10.332;2023-05-29T12:18:25;16.95;;;5.78;;
78120;SDS011;67585;44.802;10.332;2023-05-29T12:23:21;14.55;;;5.53;;
78120;SDS011;67585;44.802;10.332;2023-05-29T12:25:47;14.45;;;5.75;;
78120;SDS011;67585;44.802;10.332;2023-05-29T12:28:16;22.92;;;5.80;;
78120;SDS011;67585;44.802;10.332;2023-05-29T12:30:44;19.83;;;7.07;;
78120;SDS011;67585;44.802;10.332;2023-05-29T12:33:30;15.40;;;5.50;;
78120;SDS011;67585;44.802;10.332;2023-05-29T12:36:06;18.92;;;6.50;;
78120;SDS011;67585;44.802;10.332;2023-05-29T12:38:49;14.45;;;5.18;;
78120;SDS011;67585;44.802;10.332;2023-05-29T12:41:26;14.38;;;5.60;;
78120;SDS011;67585;44.802;10.332;2023-05-29T12:43:54;17.92;;;6.03;;
78120;SDS011;67585;44.802;10.332;2023-05-29T12:46:23;13.18;;;4.95;;
78120;SDS011;67585;44.802;10.332;2023-05-29T12:48:49;14.85;;;5.03;;
78120;SDS011;67585;44.802;10.332;2023-05-29T12:51:17;13.30;;;5.38;;
78120;SDS011;67585;44.802;10.332;2023-05-29T12:53:47;16.05;;;5.85;;
78120;SDS011;67585;44.802;10.332;2023-05-29T12:56:12;16.08;;;5.18;;
78120;SDS011;67585;44.802;10.332;2023-05-29T12:58:38;15.23;;;5.90;;
78120;SDS011;67585;44.802;10.332;2023-05-29T13:01:03;13.93;;;4.38;;
78120;SDS011;67585;44.802;10.332;2023-05-29T13:03:29;18.42;;;5.97;;
78120;SDS011;67585;44.802;10.332;2023-05-29T13:05:54;14.50;;;5.35;;
78120;SDS011;67585;44.802;10.332;2023-05-29T13:08:20;13.63;;;4.70;;
78120;SDS011;67585;44.802;10.332;2023-05-29T13:10:46;15.40;;;5.47;;
78120;SDS011;67585;44.802;10.332;2023-05-29T13:13:11;12.52;;;4.05;;
78120;SDS011;67585;44.802;10.332;2023-05-29T13:15:37;16.00;;;4.47;;
78120;SDS011;67585;44.802;10.332;2023-05-29T13:18:03;15.63;;;5.60;;
78120;SDS011;67585;44.802;10.332;2023-05-29T13:20:28;13.75;;;8.00;;
78120;SDS011;67585;44.802;10.332;2023-05-29T13:22:55;16.02;;;4.45;;
78120;SDS011;67585;44.802;10.332;2023-05-29T13:25:20;13.10;;;4.45;;
78120;SDS011;67585;44.802;10.332;2023-05-29T13:27:46;21.23;;;6.85;;
78120;SDS011;67585;44.802;10.332;2023-05-29T13:32:38;17.15;;;5.03;;
78120;SDS011;67585;44.802;10.332;2023-05-29T13:35:04;9.98;;;3.47;;
78120;SDS011;67585;44.802;10.332;2023-05-29T13:37:30;16.90;;;4.60;;
78120;SDS011;67585;44.802;10.332;2023-05-29T13:39:56;15.20;;;4.03;;
78120;SDS011;67585;44.802;10.332;2023-05-29T13:42:22;15.68;;;3.50;;
78120;SDS011;67585;44.802;10.332;2023-05-29T13:44:48;15.07;;;5.13;;
78120;SDS011;67585;44.802;10.332;2023-05-29T13:47:14;12.07;;;4.40;;
78120;SDS011;67585;44.802;10.332;2023-05-29T13:49:39;20.05;;;6.85;;
78120;SDS011;67585;44.802;10.332;2023-05-29T13:52:05;12.55;;;4.18;;
78120;SDS011;67585;44.802;10.332;2023-05-29T13:54:31;14.80;;;5.25;;
78120;SDS011;67585;44.802;10.332;2023-05-29T13:57:00;16.40;;;3.85;;
78120;SDS011;67585;44.802;10.332;2023-05-29T13:59:29;12.90;;;3.70;;
78120;SDS011;67585;44.802;10.332;2023-05-29T14:01:55;11.55;;;2.53;;
78120;SDS011;67585;44.802;10.332;2023-05-29T14:04:20;12.25;;;2.83;;
78120;SDS011;67585;44.802;10.332;2023-05-29T14:06:46;13.65;;;4.15;;
78120;SDS011;67585;44.802;10.332;2023-05-29T14:09:11;12.68;;;4.47;;
78120;SDS011;67585;44.802;10.332;2023-05-29T14:11:37;15.35;;;3.85;;
78120;SDS011;67585;44.802;10.332;2023-05-29T14:14:02;10.65;;;4.13;;
78120;SDS011;67585;44.802;10.332;2023-05-29T14:16:28;12.48;;;3.03;;
78120;SDS011;67585;44.802;10.332;2023-05-29T14:18:55;11.32;;;4.03;;
78120;SDS011;67585;44.802;10.332;2023-05-29T14:21:20;15.32;;;5.88;;
78120;SDS011;67585;44.802;10.332;2023-05-29T14:23:46;10.95;;;3.28;;
78120;SDS011;67585;44.802;10.332;2023-05-29T14:26:11;14.77;;;3.85;;
78120;SDS011;67585;44.802;10.332;2023-05-29T14:28:37;13.07;;;4.00;;
78120;SDS011;67585;44.802;10.332;2023-05-29T14:31:02;14.90;;;3.65;;
78120;SDS011;67585;44.802;10.332;2023-05-29T14:33:27;12.05;;;3.03;;
78120;SDS011;67585;44.802;10.332;2023-05-29T14:35:53;11.15;;;3.38;;
78120;SDS011;67585;44.802;10.332;2023-05-29T14:38:18;10.18;;;3.47;;
78120;SDS011;67585;44.802;10.332;2023-05-29T14:40:44;12.00;;;3.88;;
78120;SDS011;67585;44.802;10.332;2023-05-29T14:43:09;10.23;;;3.47;;
78120;SDS011;67585;44.802;10.332;2023-05-29T14:45:34;13.98;;;5.72;;
78120;SDS011;67585;44.802;10.332;2023-05-29T14:48:00;17.05;;;4.47;;
78120;SDS011;67585;44.802;10.332;2023-05-29T14:50:26;13.02;;;4.45;;
78120;SDS011;67585;44.802;10.332;2023-05-29T14:52:52;9.95;;;2.92;;
78120;SDS011;67585;44.802;10.332;2023-05-29T14:55:17;11.75;;;4.10;;
78120;SDS011;67585;44.802;10.332;2023-05-29T14:57:43;10.43;;;4.13;;
78120;SDS011;67585;44.802;10.332;2023-05-29T15:00:08;11.65;;;5.97;;